Time,TemperatureF,DewpointF,PressureIn,WindDirection,WindDirectionDegrees,WindSpeedMPH,WindSpeedGustMPH,Humidity,HourlyPrecipIn,Conditions,Clouds,dailyrainin,SoftwareType,DateUTC
2013-05-11 00:06:00,47.3,46.8,29.83,North,0,0.0,-999.0,98,-99.99,,,0.01,Acu-Link.com,2013-05-11 04:06:00,
2013-05-11 00:21:00,47.7,47.1,29.83,NE,45,3.8,-999.0,98,-99.99,,,0.02,Acu-Link.com,2013-05-11 04:21:00,
2013-05-11 00:36:00,48.0,47.5,29.83,NNW,337,2.2,-999.0,98,-99.99,,,0.08,Acu-Link.com,2013-05-11 04:36:00,
2013-05-11 00:52:00,48.0,47.5,29.81,NE,45,2.2,-999.0,98,-99.99,,,0.11,Acu-Link.com,2013-05-11 04:52:00,
2013-05-11 01:07:00,48.0,47.5,29.81,East,90,3.1,-999.0,98,-99.99,,,0.11,Acu-Link.com,2013-05-11 05:07:00,
2013-05-11 01:22:00,48.2,47.7,29.80,NE,45,4.7,-999.0,98,-99.99,,,0.12,Acu-Link.com,2013-05-11 05:22:00,
2013-05-11 01:37:00,48.4,47.8,29.80,North,0,0.0,-999.0,98,-99.99,,,0.13,Acu-Link.com,2013-05-11 05:37:00,
2013-05-11 01:52:00,48.6,48.0,29.79,East,90,2.2,-999.0,98,-99.99,,,0.14,Acu-Link.com,2013-05-11 05:52:00,
2013-05-11 02:08:00,48.4,47.8,29.78,ESE,112,0.0,-999.0,98,-99.99,,,0.15,Acu-Link.com,2013-05-11 06:08:00,
2013-05-11 02:23:00,48.4,47.8,29.77,East,90,0.0,-999.0,98,-99.99,,,0.15,Acu-Link.com,2013-05-11 06:23:00,
2013-05-11 02:38:00,48.2,47.7,29.76,North,0,0.0,-999.0,98,-99.99,,,0.17,Acu-Link.com,2013-05-11 06:38:00,
2013-05-11 02:53:00,48.2,47.7,29.75,North,0,0.0,-999.0,98,-99.99,,,0.17,Acu-Link.com,2013-05-11 06:53:00,
2013-05-11 03:09:00,48.0,47.5,29.75,North,0,1.6,-999.0,98,-99.99,,,0.17,Acu-Link.com,2013-05-11 07:09:00,
2013-05-11 03:24:00,48.0,47.5,29.74,North,0,0.0,-999.0,98,-99.99,,,0.17,Acu-Link.com,2013-05-11 07:24:00,
2013-05-11 03:39:00,47.8,47.3,29.73,North,0,0.0,-999.0,98,-99.99,,,0.19,Acu-Link.com,2013-05-11 07:39:00,
2013-05-11 03:54:00,47.7,47.1,29.73,North,0,0.0,-999.0,98,-99.99,,,0.19,Acu-Link.com,2013-05-11 07:54:00,
2013-05-11 04:10:00,47.7,47.1,29.72,North,0,0.0,-999.0,98,-99.99,,,0.20,Acu-Link.com,2013-05-11 08:10:00,
2013-05-11 04:25:00,47.7,47.1,29.72,North,0,0.0,-999.0,98,-99.99,,,0.21,Acu-Link.com,2013-05-11 08:25:00,
2013-05-11 04:40:00,47.5,46.9,29.71,North,0,0.0,-999.0,98,-99.99,,,0.21,Acu-Link.com,2013-05-11 08:40:00,
2013-05-11 04:55:00,47.5,46.9,29.71,North,0,0.0,-999.0,98,-99.99,,,0.22,Acu-Link.com,2013-05-11 08:55:00,
2013-05-11 05:11:00,47.3,46.8,29.70,North,0,0.0,-999.0,98,-99.99,,,0.24,Acu-Link.com,2013-05-11 09:11:00,
2013-05-11 05:26:00,47.3,46.8,29.70,North,0,0.0,-999.0,98,-99.99,,,0.26,Acu-Link.com,2013-05-11 09:26:00,
2013-05-11 05:41:00,47.5,46.9,29.69,North,0,0.0,-999.0,98,-99.99,,,0.27,Acu-Link.com,2013-05-11 09:41:00,
2013-05-11 05:56:00,47.5,46.9,29.69,North,0,0.0,-999.0,98,-99.99,,,0.28,Acu-Link.com,2013-05-11 09:56:00,
2013-05-11 06:11:00,47.7,47.1,29.68,North,0,0.0,-999.0,98,-99.99,,,0.28,Acu-Link.com,2013-05-11 10:11:00,
2013-05-11 06:27:00,47.7,47.1,29.68,North,0,0.0,-999.0,98,-99.99,,,0.28,Acu-Link.com,2013-05-11 10:27:00,
2013-05-11 06:42:00,47.8,47.3,29.67,North,0,0.0,-999.0,98,-99.99,,,0.28,Acu-Link.com,2013-05-11 10:42:00,
2013-05-11 06:57:00,47.8,47.3,29.67,North,0,0.0,-999.0,98,-99.99,,,0.28,Acu-Link.com,2013-05-11 10:57:00,
2013-05-11 07:12:00,48.0,47.5,29.67,North,0,0.0,-999.0,98,-99.99,,,0.30,Acu-Link.com,2013-05-11 11:12:00,
2013-05-11 07:27:00,48.6,48.0,29.67,North,0,0.0,-999.0,98,-99.99,,,0.30,Acu-Link.com,2013-05-11 11:27:00,
2013-05-11 07:43:00,48.6,48.0,29.66,North,0,0.0,-999.0,98,-99.99,,,0.30,Acu-Link.com,2013-05-11 11:43:00,
2013-05-11 07:58:00,48.6,48.0,29.65,North,0,0.0,-999.0,98,-99.99,,,0.30,Acu-Link.com,2013-05-11 11:58:00,
2013-05-11 08:13:00,48.6,48.0,29.66,North,0,0.0,-999.0,98,-99.99,,,0.30,Acu-Link.com,2013-05-11 12:13:00,
2013-05-11 08:28:00,49.1,48.6,29.65,North,0,0.0,-999.0,98,-99.99,,,0.31,Acu-Link.com,2013-05-11 12:28:00,
2013-05-11 08:43:00,49.6,49.1,29.66,North,0,0.0,-999.0,98,-99.99,,,0.31,Acu-Link.com,2013-05-11 12:43:00,
2013-05-11 08:59:00,49.6,49.1,29.66,North,0,0.0,-999.0,98,-99.99,,,0.31,Acu-Link.com,2013-05-11 12:59:00,
2013-05-11 09:14:00,50.4,49.8,29.65,North,0,0.0,-999.0,98,-99.99,,,0.31,Acu-Link.com,2013-05-11 13:14:00,
2013-05-11 09:29:00,51.1,50.5,29.64,North,0,0.0,-999.0,98,-99.99,,,0.31,Acu-Link.com,2013-05-11 13:29:00,
2013-05-11 09:44:00,50.9,50.4,29.64,North,0,0.0,-999.0,98,-99.99,,,0.31,Acu-Link.com,2013-05-11 13:44:00,
2013-05-11 09:59:00,51.4,50.9,29.64,North,0,0.0,-999.0,98,-99.99,,,0.32,Acu-Link.com,2013-05-11 13:59:00,
2013-05-11 10:15:00,52.0,51.4,29.63,North,0,0.0,-999.0,98,-99.99,,,0.32,Acu-Link.com,2013-05-11 14:15:00,
2013-05-11 10:30:00,53.1,52.5,29.63,SSW,202,0.0,-999.0,98,-99.99,,,0.33,Acu-Link.com,2013-05-11 14:30:00,
2013-05-11 10:45:00,53.4,52.9,29.63,North,0,0.0,-999.0,98,-99.99,,,0.33,Acu-Link.com,2013-05-11 14:45:00,
2013-05-11 11:00:00,53.8,53.2,29.62,North,0,0.0,-999.0,98,-99.99,,,0.33,Acu-Link.com,2013-05-11 15:00:00,
2013-05-11 11:16:00,54.3,53.8,29.62,North,0,0.0,-999.0,98,-99.99,,,0.33,Acu-Link.com,2013-05-11 15:16:00,
2013-05-11 11:31:00,55.2,54.7,29.63,North,0,0.0,-999.0,98,-99.99,,,0.34,Acu-Link.com,2013-05-11 15:31:00,
2013-05-11 11:46:00,55.6,55.0,29.63,SW,225,2.2,-999.0,98,-99.99,,,0.35,Acu-Link.com,2013-05-11 15:46:00,
2013-05-11 12:01:00,55.8,55.2,29.62,SSW,202,0.0,-999.0,98,-99.99,,,0.35,Acu-Link.com,2013-05-11 16:01:00,
2013-05-11 12:16:00,55.9,55.4,29.62,WSW,247,0.0,-999.0,98,-99.99,,,0.35,Acu-Link.com,2013-05-11 16:16:00,
2013-05-11 12:32:00,56.3,55.7,29.62,WSW,247,3.8,-999.0,98,-99.99,,,0.35,Acu-Link.com,2013-05-11 16:32:00,
2013-05-11 12:47:00,55.8,55.2,29.62,SW,225,1.1,-999.0,98,-99.99,,,0.35,Acu-Link.com,2013-05-11 16:47:00,
2013-05-11 13:02:00,54.3,53.8,29.62,WSW,247,2.7,-999.0,98,-99.99,,,0.35,Acu-Link.com,2013-05-11 17:02:00,
2013-05-11 13:17:00,53.8,53.2,29.62,SSW,202,3.8,-999.0,98,-99.99,,,0.35,Acu-Link.com,2013-05-11 17:17:00,
2013-05-11 13:32:00,53.6,53.0,29.62,SW,225,1.1,-999.0,98,-99.99,,,0.35,Acu-Link.com,2013-05-11 17:32:00,
2013-05-11 13:48:00,53.8,53.2,29.62,West,270,2.2,-999.0,98,-99.99,,,0.35,Acu-Link.com,2013-05-11 17:48:00,
2013-05-11 14:03:00,54.9,54.3,29.62,WSW,247,0.0,-999.0,98,-99.99,,,0.35,Acu-Link.com,2013-05-11 18:03:00,
2013-05-11 14:18:00,55.0,54.5,29.63,West,270,0.0,-999.0,98,-99.99,,,0.35,Acu-Link.com,2013-05-11 18:18:00,
2013-05-11 14:33:00,54.0,53.4,29.63,WSW,247,2.7,-999.0,98,-99.99,,,0.35,Acu-Link.com,2013-05-11 18:33:00,
2013-05-11 14:48:00,52.9,52.3,29.63,South,180,1.6,-999.0,98,-99.99,,,0.35,Acu-Link.com,2013-05-11 18:48:00,
2013-05-11 15:04:00,51.3,50.7,29.64,SE,135,2.2,-999.0,98,-99.99,,,0.35,Acu-Link.com,2013-05-11 19:04:00,
2013-05-11 15:19:00,51.1,50.5,29.64,SSW,202,2.7,-999.0,98,-99.99,,,0.35,Acu-Link.com,2013-05-11 19:19:00,
2013-05-11 15:34:00,50.9,50.4,29.65,SW,225,0.0,-999.0,98,-99.99,,,0.35,Acu-Link.com,2013-05-11 19:34:00,
2013-05-11 15:49:00,50.7,50.2,29.65,WSW,247,0.0,-999.0,98,-99.99,,,0.35,Acu-Link.com,2013-05-11 19:49:00,
2013-05-11 16:04:00,50.2,49.6,29.66,North,0,0.0,-999.0,98,-99.99,,,0.35,Acu-Link.com,2013-05-11 20:04:00,
2013-05-11 16:20:00,49.6,49.1,29.66,North,0,0.0,-999.0,98,-99.99,,,0.35,Acu-Link.com,2013-05-11 20:20:00,
2013-05-11 16:35:00,49.8,49.3,29.66,SW,225,0.0,-999.0,98,-99.99,,,0.35,Acu-Link.com,2013-05-11 20:35:00,
2013-05-11 16:50:00,49.6,49.1,29.66,North,0,0.0,-999.0,98,-99.99,,,0.35,Acu-Link.com,2013-05-11 20:50:00,
2013-05-11 17:05:00,49.6,49.1,29.67,North,0,0.0,-999.0,98,-99.99,,,0.35,Acu-Link.com,2013-05-11 21:05:00,
2013-05-11 17:21:00,49.6,49.1,29.67,North,0,0.0,-999.0,98,-99.99,,,0.35,Acu-Link.com,2013-05-11 21:21:00,
2013-05-11 17:36:00,49.6,49.1,29.67,North,0,0.0,-999.0,98,-99.99,,,0.35,Acu-Link.com,2013-05-11 21:36:00,
2013-05-11 17:51:00,49.6,49.1,29.68,North,0,0.0,-999.0,98,-99.99,,,0.35,Acu-Link.com,2013-05-11 21:51:00,
2013-05-11 18:06:00,49.3,48.7,29.68,North,0,1.1,-999.0,98,-99.99,,,0.35,Acu-Link.com,2013-05-11 22:06:00,
2013-05-11 18:21:00,48.9,48.4,29.69,SSW,202,2.2,-999.0,98,-99.99,,,0.35,Acu-Link.com,2013-05-11 22:21:00,
2013-05-11 18:37:00,48.9,48.4,29.69,North,0,0.0,-999.0,98,-99.99,,,0.35,Acu-Link.com,2013-05-11 22:37:00,
2013-05-11 18:52:00,49.1,48.6,29.70,North,0,0.0,-999.0,98,-99.99,,,0.35,Acu-Link.com,2013-05-11 22:52:00,
2013-05-11 19:07:00,48.9,48.4,29.70,North,0,0.0,-999.0,98,-99.99,,,0.35,Acu-Link.com,2013-05-11 23:07:00,
2013-05-11 19:22:00,48.6,48.0,29.70,North,0,0.0,-999.0,98,-99.99,,,0.35,Acu-Link.com,2013-05-11 23:22:00,
2013-05-11 19:37:00,48.6,48.0,29.71,North,0,0.0,-999.0,98,-99.99,,,0.35,Acu-Link.com,2013-05-11 23:37:00,
2013-05-11 19:53:00,48.2,47.7,29.71,North,0,0.0,-999.0,98,-99.99,,,0.35,Acu-Link.com,2013-05-11 23:53:00,
2013-05-11 20:08:00,48.0,47.5,29.71,North,0,0.0,-999.0,98,-99.99,,,0.35,Acu-Link.com,2013-05-12 00:08:00,
2013-05-11 20:23:00,48.0,47.5,29.71,North,0,0.0,-999.0,98,-99.99,,,0.35,Acu-Link.com,2013-05-12 00:23:00,
2013-05-11 20:38:00,47.8,47.3,29.73,North,0,0.0,-999.0,98,-99.99,,,0.35,Acu-Link.com,2013-05-12 00:38:00,
2013-05-11 20:53:00,47.7,47.1,29.72,North,0,0.0,-999.0,98,-99.99,,,0.35,Acu-Link.com,2013-05-12 00:53:00,
2013-05-11 21:09:00,47.3,46.8,29.73,North,0,0.0,-999.0,98,-99.99,,,0.35,Acu-Link.com,2013-05-12 01:09:00,
2013-05-11 21:24:00,47.1,46.6,29.73,North,0,0.0,-999.0,98,-99.99,,,0.35,Acu-Link.com,2013-05-12 01:24:00,
2013-05-11 21:39:00,46.9,46.4,29.73,North,0,0.0,-999.0,98,-99.99,,,0.35,Acu-Link.com,2013-05-12 01:39:00,
2013-05-11 21:54:00,46.9,46.4,29.73,North,0,0.0,-999.0,98,-99.99,,,0.35,Acu-Link.com,2013-05-12 01:54:00,
2013-05-11 22:09:00,46.8,46.2,29.72,North,0,0.0,-999.0,98,-99.99,,,0.35,Acu-Link.com,2013-05-12 02:09:00,
2013-05-11 22:25:00,46.8,46.2,29.73,North,0,0.0,-999.0,98,-99.99,,,0.35,Acu-Link.com,2013-05-12 02:25:00,
2013-05-11 22:40:00,46.8,46.2,29.72,North,0,0.0,-999.0,98,-99.99,,,0.35,Acu-Link.com,2013-05-12 02:40:00,
2013-05-11 22:55:00,46.8,46.2,29.72,North,0,0.0,-999.0,98,-99.99,,,0.35,Acu-Link.com,2013-05-12 02:55:00,
2013-05-11 23:10:00,46.6,46.0,29.72,North,0,0.0,-999.0,98,-99.99,,,0.35,Acu-Link.com,2013-05-12 03:10:00,
2013-05-11 23:26:00,46.6,46.0,29.72,North,0,0.0,-999.0,98,-99.99,,,0.35,Acu-Link.com,2013-05-12 03:26:00,
2013-05-11 23:41:00,46.6,46.0,29.71,North,0,0.0,-999.0,98,-99.99,,,0.35,Acu-Link.com,2013-05-12 03:41:00,
2013-05-11 23:56:00,46.6,46.0,29.71,North,0,0.0,-999.0,98,-99.99,,,0.35,Acu-Link.com,2013-05-12 03:56:00,